createdAt,value
2018-09-09T00:02:02.381Z,13.40
2018-09-09T00:04:06.706Z,13.30
2018-09-09T00:06:10.761Z,13.30
2018-09-09T00:08:14.755Z,13.20
2018-09-09T00:10:18.728Z,13.20
2018-09-09T00:12:22.966Z,13.20
2018-09-09T00:14:26.865Z,13.20
2018-09-09T00:16:30.907Z,13.20
2018-09-09T00:18:35.143Z,13.10
2018-09-09T00:20:39.083Z,13.10
2018-09-09T00:22:43.033Z,13.10
2018-09-09T00:24:47.093Z,13.00
2018-09-09T00:26:51.118Z,13.00
2018-09-09T00:28:55.254Z,13.00
2018-09-09T00:30:59.146Z,13.00
2018-09-09T00:33:03.359Z,12.90
2018-09-09T00:35:07.392Z,12.90
2018-09-09T00:37:11.336Z,12.90
2018-09-09T00:39:15.276Z,12.80
2018-09-09T00:41:19.152Z,12.80
2018-09-09T00:43:23.121Z,12.80
2018-09-09T00:45:27.164Z,12.80
2018-09-09T00:47:31.252Z,12.70
2018-09-09T00:49:40.323Z,12.70
2018-09-09T00:51:49.643Z,12.70
2018-09-09T00:53:54.289Z,12.60
2018-09-09T00:55:59.324Z,12.60
2018-09-09T00:58:03.253Z,12.50
2018-09-09T01:00:07.308Z,12.50
2018-09-09T01:02:11.537Z,12.50
2018-09-09T01:04:16.667Z,12.40
2018-09-09T01:06:20.557Z,12.40
2018-09-09T01:08:27.699Z,12.40
2018-09-09T01:10:31.565Z,12.30
2018-09-09T01:12:35.550Z,12.30
2018-09-09T01:14:39.893Z,12.20
2018-09-09T01:16:43.721Z,12.20
2018-09-09T01:18:47.661Z,12.10
2018-09-09T01:20:51.609Z,12.10
2018-09-09T01:22:55.428Z,12.10
2018-09-09T01:24:59.410Z,12.10
2018-09-09T01:27:03.199Z,12.10
2018-09-09T01:29:07.143Z,12.10
2018-09-09T01:31:11.785Z,12.10
2018-09-09T01:33:16.613Z,12.10
2018-09-09T01:35:20.505Z,12.10
2018-09-09T01:37:24.371Z,12.10
2018-09-09T01:39:28.228Z,12.10
2018-09-09T01:41:32.387Z,12.00
2018-09-09T01:43:36.256Z,12.00
2018-09-09T01:45:40.220Z,12.00
2018-09-09T01:47:43.991Z,11.90
2018-09-09T01:49:47.895Z,11.90
2018-09-09T01:51:51.943Z,11.80
2018-09-09T01:53:55.802Z,11.80
2018-09-09T01:55:59.722Z,11.80
2018-09-09T01:58:04.277Z,11.80
2018-09-09T02:00:08.275Z,11.70
2018-09-09T02:02:12.151Z,11.70
2018-09-09T02:04:16.017Z,11.70
2018-09-09T02:06:19.960Z,11.70
2018-09-09T02:08:23.823Z,11.70
2018-09-09T02:10:27.901Z,11.70
2018-09-09T02:12:31.896Z,11.70
2018-09-09T02:14:35.807Z,11.70
2018-09-09T02:16:39.693Z,11.70
2018-09-09T02:18:43.665Z,11.60
2018-09-09T02:20:47.531Z,11.60
2018-09-09T02:22:52.452Z,11.60
2018-09-09T02:24:56.404Z,11.60
2018-09-09T02:27:05.221Z,11.50
2018-09-09T02:29:09.136Z,11.50
2018-09-09T02:31:13.354Z,11.50
2018-09-09T02:33:17.313Z,11.50
2018-09-09T02:35:21.240Z,11.50
2018-09-09T02:37:25.503Z,11.50
2018-09-09T02:39:30.485Z,11.50
2018-09-09T02:41:34.362Z,11.50
2018-09-09T02:43:39.065Z,11.40
2018-09-09T02:45:43.020Z,11.40
2018-09-09T02:47:47.124Z,11.40
2018-09-09T02:49:51.142Z,11.40
2018-09-09T02:51:55.087Z,11.40
2018-09-09T02:53:58.929Z,11.40
2018-09-09T02:56:07.058Z,11.40
2018-09-09T02:58:10.931Z,11.30
2018-09-09T03:00:15.884Z,11.30
2018-09-09T03:02:19.711Z,11.30
2018-09-09T03:04:23.696Z,11.30
2018-09-09T03:06:27.759Z,11.20
2018-09-09T03:08:31.663Z,11.20
2018-09-09T03:10:36.042Z,11.20
2018-09-09T03:12:41.014Z,11.20
2018-09-09T03:14:44.887Z,11.20
2018-09-09T03:16:48.791Z,11.20
2018-09-09T03:18:52.621Z,11.10
2018-09-09T03:20:56.609Z,11.10
2018-09-09T03:23:00.451Z,11.00
2018-09-09T03:25:05.599Z,11.00
2018-09-09T03:27:09.709Z,11.00
2018-09-09T03:29:13.635Z,11.00
2018-09-09T03:31:17.558Z,10.90
2018-09-09T03:33:21.459Z,10.90
2018-09-09T03:35:25.335Z,10.90
2018-09-09T03:37:29.264Z,10.90
2018-09-09T03:39:33.249Z,10.90
2018-09-09T03:41:37.562Z,10.80
2018-09-09T03:43:41.411Z,10.80
2018-09-09T03:45:45.253Z,10.80
2018-09-09T03:47:49.150Z,10.80
2018-09-09T03:49:53.082Z,10.70
2018-09-09T03:51:56.949Z,10.60
2018-09-09T03:54:00.913Z,10.60
2018-09-09T03:56:04.873Z,10.60
2018-09-09T03:58:08.727Z,10.60
2018-09-09T04:00:12.643Z,10.60
2018-09-09T04:02:17.543Z,10.60
2018-09-09T04:04:21.410Z,10.60
2018-09-09T04:06:25.872Z,10.60
2018-09-09T04:08:29.975Z,10.60
2018-09-09T04:10:33.874Z,10.60
2018-09-09T04:12:37.678Z,10.60
2018-09-09T04:14:41.878Z,10.60
2018-09-09T04:16:45.860Z,10.60
2018-09-09T04:18:49.745Z,10.60
2018-09-09T04:20:53.611Z,10.60
2018-09-09T04:22:58.631Z,10.60
2018-09-09T04:25:02.423Z,10.50
2018-09-09T04:27:06.414Z,10.50
2018-09-09T04:29:10.348Z,10.50
2018-09-09T04:31:14.447Z,10.50
2018-09-09T04:33:19.215Z,10.50
2018-09-09T04:35:23.089Z,10.50
2018-09-09T04:37:27.939Z,10.50
2018-09-09T04:39:31.928Z,10.40
2018-09-09T04:41:35.750Z,10.40
2018-09-09T04:43:39.643Z,10.40
2018-09-09T04:45:43.541Z,10.40
2018-09-09T04:47:47.587Z,10.30
2018-09-09T04:49:51.797Z,10.30
2018-09-09T04:51:55.673Z,10.30
2018-09-09T04:54:01.588Z,10.20
2018-09-09T04:56:05.932Z,10.20
2018-09-09T04:58:09.682Z,10.20
2018-09-09T05:00:13.615Z,10.20
2018-09-09T05:02:17.583Z,10.20
2018-09-09T05:04:21.498Z,10.20
2018-09-09T05:06:25.355Z,10.20
2018-09-09T05:08:30.340Z,10.20
2018-09-09T05:10:35.044Z,10.20
2018-09-09T05:12:39.087Z,10.20
2018-09-09T05:14:42.871Z,10.10
2018-09-09T05:16:46.761Z,10.10
2018-09-09T05:18:50.565Z,10.10
2018-09-09T05:20:54.510Z,10.10
2018-09-09T05:22:59.825Z,10.00
2018-09-09T05:25:03.803Z,10.10
2018-09-09T05:27:07.714Z,10.00
2018-09-09T05:29:11.848Z,10.10
2018-09-09T05:31:15.654Z,10.10
2018-09-09T05:33:19.479Z,10.10
2018-09-09T05:35:23.309Z,10.10
2018-09-09T05:37:27.227Z,10.10
2018-09-09T05:39:31.035Z,10.20
2018-09-09T05:41:35.211Z,10.20
2018-09-09T05:43:43.699Z,10.10
2018-09-09T05:46:11.700Z,10.10
2018-09-09T05:48:16.944Z,10.20
2018-09-09T05:50:20.747Z,10.10
2018-09-09T05:52:45.501Z,10.10
2018-09-09T05:55:09.224Z,10.20
2018-09-09T05:57:14.086Z,10.30
2018-09-09T05:59:17.992Z,10.40
2018-09-09T06:01:21.898Z,10.60
2018-09-09T06:03:25.824Z,10.70
2018-09-09T06:05:29.637Z,10.80
2018-09-09T06:07:33.583Z,11.00
2018-09-09T06:09:37.942Z,11.10
2018-09-09T06:11:41.906Z,11.10
2018-09-09T06:13:45.772Z,11.20
2018-09-09T06:15:49.716Z,11.40
2018-09-09T06:17:53.856Z,11.60
2018-09-09T06:20:21.325Z,11.90
2018-09-09T06:22:26.510Z,12.20
2018-09-09T06:24:30.830Z,12.50
2018-09-09T06:26:34.855Z,12.60
2018-09-09T06:28:38.743Z,12.80
2018-09-09T06:30:42.663Z,12.80
2018-09-09T06:32:46.667Z,12.90
2018-09-09T06:34:51.640Z,12.90
2018-09-09T06:36:55.539Z,13.00
2018-09-09T06:38:59.432Z,12.90
2018-09-09T06:41:03.321Z,12.80
2018-09-09T06:43:07.220Z,12.80
2018-09-09T06:45:11.055Z,12.80
2018-09-09T06:47:15.036Z,12.90
2018-09-09T06:49:19.398Z,13.10
2018-09-09T06:51:23.308Z,13.30
2018-09-09T06:53:27.488Z,13.50
2018-09-09T06:55:33.597Z,13.70
2018-09-09T06:57:39.547Z,14.00
2018-09-09T06:59:45.865Z,14.30
2018-09-09T07:01:51.470Z,14.50
2018-09-09T07:04:07.254Z,14.90
2018-09-09T07:06:12.107Z,15.10
2018-09-09T07:08:17.561Z,15.40
2018-09-09T07:10:36.647Z,15.60
2018-09-09T07:12:40.523Z,15.80
2018-09-09T07:14:46.219Z,15.90
2018-09-09T07:16:50.195Z,16.10
2018-09-09T07:18:54.097Z,16.20
2018-09-09T07:20:58.014Z,16.30
2018-09-09T07:23:01.949Z,16.40
2018-09-09T07:25:08.526Z,16.50
2018-09-09T07:27:12.535Z,16.60
2018-09-09T07:29:16.850Z,16.80
2018-09-09T07:31:22.029Z,17.00
2018-09-09T07:33:28.641Z,17.20
2018-09-09T07:35:33.065Z,17.50
2018-09-09T07:37:37.301Z,17.70
2018-09-09T07:39:41.363Z,17.80
2018-09-09T07:41:46.088Z,17.80
2018-09-09T07:43:50.286Z,17.70
2018-09-09T07:45:54.195Z,17.70
2018-09-09T07:47:58.094Z,17.70
2018-09-09T07:50:01.933Z,17.50
2018-09-09T07:52:05.746Z,17.50
2018-09-09T07:54:09.630Z,17.50
2018-09-09T07:56:13.557Z,17.50
2018-09-09T07:58:18.054Z,17.50
2018-09-09T08:00:22.629Z,17.50
2018-09-09T08:02:27.926Z,17.50
2018-09-09T08:04:32.047Z,17.60
2018-09-09T08:06:35.868Z,17.80
2018-09-09T08:08:39.858Z,18.10
2018-09-09T08:10:43.674Z,18.30
2018-09-09T08:12:47.649Z,18.60
2018-09-09T08:14:51.475Z,18.90
2018-09-09T08:16:55.433Z,19.20
2018-09-09T08:18:59.635Z,19.50
2018-09-09T08:21:03.584Z,19.70
2018-09-09T08:23:08.497Z,20.00
2018-09-09T08:25:12.393Z,20.30
2018-09-09T08:27:16.208Z,20.50
2018-09-09T08:29:20.238Z,20.60
2018-09-09T08:31:24.632Z,20.70
2018-09-09T08:33:28.732Z,20.70
2018-09-09T08:35:32.776Z,20.90
2018-09-09T08:37:36.839Z,21.00
2018-09-09T08:39:40.696Z,21.10
2018-09-09T08:41:46.688Z,21.10
2018-09-09T08:43:50.727Z,21.20
2018-09-09T08:45:54.630Z,21.30
2018-09-09T08:47:58.545Z,21.50
2018-09-09T08:50:02.441Z,21.60
2018-09-09T08:52:06.587Z,21.80
2018-09-09T08:54:10.539Z,22.00
2018-09-09T08:56:14.707Z,22.20
2018-09-09T08:58:18.845Z,22.30
2018-09-09T09:00:22.764Z,22.40
2018-09-09T09:02:26.753Z,22.50
2018-09-09T09:04:30.547Z,22.70
2018-09-09T09:06:34.867Z,22.80
2018-09-09T09:08:38.824Z,22.90
2018-09-09T09:10:43.850Z,23.00
2018-09-09T09:12:47.629Z,23.20
2018-09-09T09:14:51.562Z,23.10
2018-09-09T09:16:55.507Z,23.20
2018-09-09T09:18:59.342Z,23.10
2018-09-09T09:21:03.320Z,23.10
2018-09-09T09:23:07.515Z,23.20
2018-09-09T09:25:11.398Z,23.40
2018-09-09T09:27:15.380Z,23.50
2018-09-09T09:29:19.250Z,23.30
2018-09-09T09:31:23.249Z,23.30
2018-09-09T09:33:27.231Z,23.20
2018-09-09T09:35:36.204Z,23.20
2018-09-09T09:37:40.188Z,23.20
2018-09-09T09:39:44.000Z,23.30
2018-09-09T09:41:48.143Z,23.50
2018-09-09T09:44:12.384Z,23.60
2018-09-09T09:46:17.870Z,23.60
2018-09-09T09:48:21.893Z,23.70
2018-09-09T09:50:25.678Z,23.80
2018-09-09T09:52:29.545Z,23.90
2018-09-09T09:54:33.413Z,24.10
2018-09-09T09:56:38.049Z,24.30
2018-09-09T09:58:42.351Z,24.50
2018-09-09T10:00:51.446Z,24.50
2018-09-09T10:02:56.103Z,24.60
2018-09-09T10:04:59.989Z,24.80
2018-09-09T10:07:04.479Z,24.90
2018-09-09T10:09:08.646Z,24.90
2018-09-09T10:11:12.713Z,24.80
2018-09-09T10:13:17.492Z,24.90
2018-09-09T10:15:22.943Z,24.90
2018-09-09T10:17:27.750Z,24.80
2018-09-09T10:19:32.163Z,25.00
2018-09-09T10:21:36.236Z,25.30
2018-09-09T10:23:41.662Z,25.40
2018-09-09T10:25:45.612Z,25.30
2018-09-09T10:27:50.066Z,25.20
2018-09-09T10:29:54.205Z,25.30
2018-09-09T10:31:59.236Z,25.50
2018-09-09T10:34:03.132Z,25.60
2018-09-09T10:36:07.187Z,25.90
2018-09-09T10:38:22.154Z,26.10
2018-09-09T10:40:25.996Z,26.40
2018-09-09T10:42:48.035Z,26.60
2018-09-09T10:45:06.974Z,26.60
2018-09-09T10:47:10.998Z,26.20
2018-09-09T10:49:14.840Z,26.10
2018-09-09T10:51:18.686Z,26.00
2018-09-09T10:53:22.511Z,25.70
2018-09-09T10:55:26.346Z,25.80
2018-09-09T10:57:30.240Z,25.80
2018-09-09T10:59:34.115Z,25.60
2018-09-09T11:01:37.920Z,25.40
2018-09-09T11:03:41.815Z,25.30
2018-09-09T11:05:45.680Z,25.10
2018-09-09T11:07:50.771Z,25.10
2018-09-09T11:09:54.749Z,25.10
2018-09-09T11:11:58.601Z,25.30
2018-09-09T11:14:02.555Z,25.60
2018-09-09T11:16:06.664Z,26.00
2018-09-09T11:18:10.931Z,26.20
2018-09-09T11:20:14.807Z,26.20
2018-09-09T11:22:18.806Z,26.20
2018-09-09T11:24:22.797Z,26.20
2018-09-09T11:26:26.533Z,26.20
2018-09-09T11:28:30.365Z,26.40
2018-09-09T11:30:34.239Z,26.60
2018-09-09T11:32:38.078Z,26.50
2018-09-09T11:34:42.155Z,26.30
2018-09-09T11:36:46.319Z,26.30
2018-09-09T11:38:50.275Z,26.30
2018-09-09T11:40:54.177Z,26.00
2018-09-09T11:42:58.318Z,26.10
2018-09-09T11:45:03.117Z,26.30
2018-09-09T11:47:27.035Z,26.50
2018-09-09T11:49:32.523Z,26.70
2018-09-09T11:51:36.983Z,26.80
2018-09-09T11:53:56.904Z,27.00
2018-09-09T11:56:01.019Z,27.30
2018-09-09T11:58:10.083Z,27.50
2018-09-09T12:00:14.731Z,27.50
2018-09-09T12:02:18.722Z,27.80
2018-09-09T12:04:22.783Z,27.80
2018-09-09T12:06:26.618Z,27.90
2018-09-09T12:08:30.618Z,28.00
2018-09-09T12:10:35.660Z,27.60
2018-09-09T12:12:39.815Z,27.10
2018-09-09T12:14:45.953Z,27.10
2018-09-09T12:16:50.018Z,27.20
2018-09-09T12:19:10.501Z,27.30
2018-09-09T12:21:14.948Z,27.40
2018-09-09T12:23:19.136Z,27.50
2018-09-09T12:25:23.521Z,27.40
2018-09-09T12:27:27.537Z,27.20
2018-09-09T12:29:31.931Z,27.20
2018-09-09T12:31:36.064Z,27.20
2018-09-09T12:33:40.989Z,26.90
2018-09-09T12:35:45.033Z,26.80
2018-09-09T12:37:48.919Z,26.90
2018-09-09T12:39:52.915Z,27.00
2018-09-09T12:41:56.768Z,27.20
2018-09-09T12:44:05.911Z,27.20
2018-09-09T12:46:15.121Z,27.40
2018-09-09T12:48:24.638Z,27.30
2018-09-09T12:50:28.701Z,27.00
2018-09-09T12:52:32.728Z,26.70
2018-09-09T12:54:37.096Z,26.70
2018-09-09T12:56:41.090Z,26.60
2018-09-09T12:58:45.002Z,26.20
2018-09-09T13:00:49.006Z,26.10
2018-09-09T13:02:52.872Z,26.20
2018-09-09T13:04:58.443Z,26.30
2018-09-09T13:07:02.324Z,26.50
2018-09-09T13:09:08.170Z,26.60
2018-09-09T13:11:12.310Z,26.50
2018-09-09T13:13:18.275Z,26.40
2018-09-09T13:15:23.086Z,26.40
2018-09-09T13:17:27.181Z,26.30
2018-09-09T13:19:31.235Z,26.20
2018-09-09T13:21:35.342Z,26.10
2018-09-09T13:23:40.449Z,26.00
2018-09-09T13:25:44.480Z,25.80
2018-09-09T13:27:48.488Z,25.90
2018-09-09T13:29:52.584Z,26.00
2018-09-09T13:32:00.262Z,25.90
2018-09-09T13:34:04.253Z,25.90
2018-09-09T13:36:08.474Z,26.00
2018-09-09T13:38:14.498Z,26.30
2018-09-09T13:42:33.564Z,27.00
2018-09-09T13:44:58.888Z,27.30
2018-09-09T13:47:02.915Z,27.50
2018-09-09T13:49:07.204Z,27.80
2018-09-09T13:51:11.190Z,28.00
2018-09-09T13:53:15.043Z,28.10
2018-09-09T13:55:18.865Z,28.10
2018-09-09T13:57:22.744Z,28.10
2018-09-09T13:59:28.024Z,28.00
2018-09-09T14:01:35.244Z,28.00
2018-09-09T14:03:40.336Z,28.10
2018-09-09T14:05:45.605Z,28.20
2018-09-09T14:07:49.506Z,28.00
2018-09-09T14:09:54.632Z,27.50
2018-09-09T14:11:59.131Z,27.10
2018-09-09T14:14:03.092Z,27.10
2018-09-09T14:16:07.266Z,26.90
2018-09-09T14:18:11.589Z,27.00
2018-09-09T14:20:15.806Z,27.10
2018-09-09T14:22:19.813Z,27.10
2018-09-09T14:24:23.831Z,27.10
2018-09-09T14:26:29.061Z,26.90
2018-09-09T14:28:33.064Z,26.80
2018-09-09T14:30:37.352Z,26.80
2018-09-09T14:32:45.218Z,26.50
2018-09-09T14:34:49.316Z,26.60
2018-09-09T14:36:53.769Z,26.70
2018-09-09T14:38:58.159Z,26.70
2018-09-09T14:41:03.631Z,26.90
2018-09-09T14:43:07.929Z,27.10
2018-09-09T14:45:14.056Z,27.00
2018-09-09T14:47:18.895Z,27.10
2018-09-09T14:49:23.053Z,27.20
2018-09-09T14:51:28.656Z,27.30
2018-09-09T14:53:33.099Z,27.40
2018-09-09T14:55:36.911Z,27.50
2018-09-09T14:57:42.254Z,27.50
2018-09-09T14:59:46.956Z,27.60
2018-09-09T15:01:53.107Z,27.70
2018-09-09T15:04:00.267Z,27.70
2018-09-09T15:06:05.514Z,27.70
2018-09-09T15:08:12.059Z,27.70
2018-09-09T15:10:16.165Z,27.80
2018-09-09T15:12:20.051Z,27.70
2018-09-09T15:14:24.113Z,27.70
2018-09-09T15:16:28.009Z,27.80
2018-09-09T15:18:32.418Z,27.90
2018-09-09T15:20:36.393Z,28.00
2018-09-09T15:22:41.332Z,28.00
2018-09-09T15:24:46.433Z,27.80
2018-09-09T15:26:51.253Z,27.50
2018-09-09T15:28:56.402Z,27.30
2018-09-09T15:31:01.202Z,27.10
2018-09-09T15:33:05.106Z,27.10
2018-09-09T15:35:11.222Z,27.00
2018-09-09T15:37:45.938Z,27.00
2018-09-09T15:40:13.204Z,27.10
2018-09-09T15:42:29.228Z,27.10
2018-09-09T15:44:40.207Z,27.10
2018-09-09T15:46:44.217Z,27.10
2018-09-09T15:48:48.261Z,27.10
2018-09-09T15:50:52.148Z,27.00
2018-09-09T15:52:56.557Z,26.90
2018-09-09T15:55:00.651Z,27.00
2018-09-09T15:57:07.180Z,27.10
2018-09-09T15:59:13.660Z,27.20
2018-09-09T16:01:20.204Z,27.30
2018-09-09T16:03:28.250Z,27.30
2018-09-09T16:05:32.161Z,27.30
2018-09-09T16:07:36.143Z,27.30
2018-09-09T16:09:40.334Z,27.20
2018-09-09T16:11:48.418Z,27.10
2018-09-09T16:13:55.188Z,27.10
2018-09-09T16:16:01.415Z,27.00
2018-09-09T16:18:06.131Z,26.90
2018-09-09T16:20:10.581Z,26.80
2018-09-09T16:22:17.449Z,26.80
2018-09-09T16:24:24.769Z,26.60
2018-09-09T16:26:29.128Z,26.40
2018-09-09T16:28:38.695Z,26.20
2018-09-09T16:30:49.396Z,26.10
2018-09-09T16:32:57.728Z,25.90
2018-09-09T16:35:02.701Z,25.80
2018-09-09T16:37:08.005Z,25.60
2018-09-09T16:39:11.957Z,25.50
2018-09-09T16:41:15.984Z,25.40
2018-09-09T16:43:19.969Z,25.30
2018-09-09T16:45:27.792Z,25.20
2018-09-09T16:47:31.894Z,25.10
2018-09-09T16:49:35.741Z,25.10
2018-09-09T16:51:43.155Z,25.10
2018-09-09T16:54:15.361Z,25.00
2018-09-09T16:56:20.013Z,25.00
2018-09-09T16:58:23.929Z,24.90
2018-09-09T17:00:31.468Z,24.80
2018-09-09T17:02:35.342Z,24.80
2018-09-09T17:04:39.297Z,24.70
2018-09-09T17:06:43.240Z,24.70
2018-09-09T17:08:48.162Z,24.60
2018-09-09T17:10:51.982Z,24.60
2018-09-09T17:12:55.845Z,24.50
2018-09-09T17:14:59.746Z,24.50
2018-09-09T17:17:03.685Z,24.40
2018-09-09T17:19:07.626Z,24.30
2018-09-09T17:21:11.625Z,24.30
2018-09-09T17:23:15.539Z,24.30
2018-09-09T17:25:20.385Z,24.20
2018-09-09T17:27:24.343Z,24.20
2018-09-09T17:29:28.295Z,24.10
2018-09-09T17:31:32.190Z,24.10
2018-09-09T17:33:36.083Z,24.00
2018-09-09T17:35:41.341Z,24.00
2018-09-09T17:37:48.584Z,23.90
2018-09-09T17:39:52.515Z,23.80
2018-09-09T17:41:57.204Z,23.70
2018-09-09T17:44:01.209Z,23.60
2018-09-09T17:46:05.156Z,23.60
2018-09-09T17:48:09.115Z,23.50
2018-09-09T17:50:13.283Z,23.30
2018-09-09T17:52:17.231Z,23.20
2018-09-09T17:54:21.544Z,23.10
2018-09-09T17:56:25.901Z,23.00
2018-09-09T17:58:29.791Z,22.70
2018-09-09T18:00:33.835Z,22.60
2018-09-09T18:02:37.690Z,22.50
2018-09-09T18:04:42.061Z,22.40
2018-09-09T18:06:46.001Z,22.20
2018-09-09T18:08:50.250Z,22.10
2018-09-09T18:11:21.713Z,22.00
2018-09-09T18:13:28.133Z,21.90
2018-09-09T18:15:32.501Z,21.70
2018-09-09T18:17:37.017Z,21.60
2018-09-09T18:19:41.738Z,21.60
2018-09-09T18:21:48.541Z,21.40
2018-09-09T18:23:55.013Z,21.30
2018-09-09T18:26:02.339Z,21.20
2018-09-09T18:28:07.095Z,21.10
2018-09-09T18:30:13.573Z,21.00
2018-09-09T18:32:17.533Z,20.90
2018-09-09T18:34:32.487Z,20.80
2018-09-09T18:36:37.764Z,20.70
2018-09-09T18:39:02.850Z,20.60
2018-09-09T18:41:10.775Z,20.50
2018-09-09T18:43:16.472Z,20.50
2018-09-09T18:45:22.238Z,20.40
2018-09-09T18:47:27.232Z,20.30
2018-09-09T18:49:31.826Z,20.20
2018-09-09T18:51:38.042Z,20.10
2018-09-09T18:53:42.085Z,20.00
2018-09-09T18:55:46.017Z,19.90
2018-09-09T18:57:52.431Z,19.80
2018-09-09T19:00:16.514Z,19.80
2018-09-09T19:02:23.903Z,19.70
2018-09-09T19:04:27.824Z,19.60
2018-09-09T19:07:00.831Z,19.60
2018-09-09T19:09:38.976Z,19.40
2018-09-09T19:12:00.110Z,19.30
2018-09-09T19:14:04.974Z,19.20
2018-09-09T19:16:10.194Z,19.10
2018-09-09T19:18:14.016Z,19.00
2018-09-09T19:20:18.540Z,18.90
2018-09-09T19:22:22.728Z,18.80
2018-09-09T19:24:27.582Z,18.70
2018-09-09T19:26:31.947Z,18.70
2018-09-09T19:28:36.524Z,18.60
2018-09-09T19:30:40.755Z,18.50
2018-09-09T19:32:44.983Z,18.50
2018-09-09T19:35:10.301Z,18.40
2018-09-09T19:37:15.099Z,18.40
2018-09-09T19:39:19.641Z,18.30
2018-09-09T19:41:24.193Z,18.30
2018-09-09T19:43:28.114Z,18.20
2018-09-09T19:45:36.916Z,18.20
2018-09-09T19:47:42.340Z,18.10
2018-09-09T19:49:46.251Z,18.00
2018-09-09T19:51:50.105Z,17.90
2018-09-09T19:53:54.097Z,17.90
2018-09-09T19:55:58.029Z,17.90
2018-09-09T19:58:01.911Z,17.80
2018-09-09T20:00:06.145Z,17.80
2018-09-09T20:02:11.385Z,17.70
2018-09-09T20:04:16.510Z,17.60
2018-09-09T20:06:21.443Z,17.60
2018-09-09T20:08:29.626Z,17.60
2018-09-09T20:10:33.762Z,17.50
2018-09-09T20:12:37.721Z,17.40
2018-09-09T20:14:41.713Z,17.40
2018-09-09T20:16:46.061Z,17.30
2018-09-09T20:18:50.495Z,17.30
2018-09-09T20:20:55.651Z,17.20
2018-09-09T20:22:59.751Z,17.20
2018-09-09T20:25:03.888Z,17.10
2018-09-09T20:27:07.946Z,17.00
2018-09-09T20:29:11.994Z,16.90
2018-09-09T20:31:16.110Z,16.90
2018-09-09T20:33:21.013Z,16.80
2018-09-09T20:35:24.953Z,16.70
2018-09-09T20:37:29.011Z,16.70
2018-09-09T20:39:33.390Z,16.70
2018-09-09T20:41:38.384Z,16.60
2018-09-09T20:43:43.197Z,16.60
2018-09-09T20:45:48.834Z,16.50
2018-09-09T20:47:52.920Z,16.50
2018-09-09T20:49:56.849Z,16.40
2018-09-09T20:52:00.758Z,16.40
2018-09-09T20:54:06.174Z,16.30
2018-09-09T20:56:11.668Z,16.20
2018-09-09T20:58:17.140Z,16.20
2018-09-09T21:00:21.449Z,16.10
2018-09-09T21:02:28.485Z,16.00
2018-09-09T21:04:32.944Z,16.00
2018-09-09T21:06:37.049Z,16.00
2018-09-09T21:08:40.994Z,15.90
2018-09-09T21:10:45.102Z,15.90
2018-09-09T21:12:49.018Z,15.80
2018-09-09T21:14:53.018Z,15.80
2018-09-09T21:16:56.969Z,15.70
2018-09-09T21:19:01.008Z,15.70
2018-09-09T21:21:05.539Z,15.60
2018-09-09T21:23:10.038Z,15.60
2018-09-09T21:25:13.979Z,15.60
2018-09-09T21:27:18.258Z,15.50
2018-09-09T21:29:22.194Z,15.60
2018-09-09T21:31:26.226Z,15.50
2018-09-09T21:33:30.114Z,15.50
2018-09-09T21:35:33.947Z,15.50
2018-09-09T21:37:37.920Z,15.40
2018-09-09T21:39:43.890Z,15.40
2018-09-09T21:41:48.359Z,15.40
2018-09-09T21:43:52.315Z,15.30
2018-09-09T21:45:56.291Z,15.30
2018-09-09T21:48:00.918Z,15.30
2018-09-09T21:50:04.906Z,15.20
2018-09-09T21:52:08.844Z,15.20
2018-09-09T21:54:12.982Z,15.20
2018-09-09T21:56:16.909Z,15.20
2018-09-09T21:58:20.755Z,15.10
2018-09-09T22:00:25.077Z,15.10
2018-09-09T22:02:29.713Z,15.00
2018-09-09T22:04:33.810Z,15.00
2018-09-09T22:06:37.916Z,14.90
2018-09-09T22:08:42.780Z,14.90
2018-09-09T22:10:46.612Z,14.90
2018-09-09T22:12:51.224Z,14.80
2018-09-09T22:14:58.072Z,14.80
2018-09-09T22:17:02.059Z,14.70
2018-09-09T22:19:06.700Z,14.70
2018-09-09T22:21:10.685Z,14.70
2018-09-09T22:23:15.878Z,14.60
2018-09-09T22:25:20.722Z,14.60
2018-09-09T22:27:24.672Z,14.50
2018-09-09T22:29:28.655Z,14.50
2018-09-09T22:31:32.610Z,14.50
2018-09-09T22:33:36.704Z,14.50
2018-09-09T22:35:40.610Z,14.40
2018-09-09T22:37:47.355Z,14.30
2018-09-09T22:39:51.229Z,14.40
2018-09-09T22:41:55.273Z,14.30
2018-09-09T22:43:59.248Z,14.30
2018-09-09T22:46:03.299Z,14.30
2018-09-09T22:48:07.280Z,14.20
2018-09-09T22:50:11.243Z,14.20
2018-09-09T22:52:15.173Z,14.20
2018-09-09T22:54:19.222Z,14.10
2018-09-09T22:56:23.209Z,14.10
2018-09-09T22:58:27.315Z,14.10
2018-09-09T23:00:31.218Z,14.00
2018-09-09T23:02:35.347Z,14.00
2018-09-09T23:04:40.329Z,14.00
2018-09-09T23:06:44.382Z,13.90
2018-09-09T23:08:48.245Z,13.90
2018-09-09T23:10:52.239Z,13.90
2018-09-09T23:12:56.065Z,13.90
2018-09-09T23:15:00.246Z,13.90
2018-09-09T23:17:04.186Z,13.80
2018-09-09T23:19:08.374Z,13.80
2018-09-09T23:21:12.246Z,13.80
2018-09-09T23:23:16.251Z,13.70
2018-09-09T23:25:20.032Z,13.60
2018-09-09T23:27:23.944Z,13.60
2018-09-09T23:29:27.865Z,13.60
2018-09-09T23:31:31.911Z,13.60
2018-09-09T23:33:36.045Z,13.60
2018-09-09T23:35:40.093Z,13.60
2018-09-09T23:37:44.380Z,13.60
2018-09-09T23:39:48.359Z,13.50
2018-09-09T23:41:52.165Z,13.50
2018-09-09T23:43:56.213Z,13.50
2018-09-09T23:46:00.296Z,13.40
2018-09-09T23:48:04.477Z,13.40
2018-09-09T23:50:08.436Z,13.40
2018-09-09T23:52:12.421Z,13.30
2018-09-09T23:54:16.312Z,13.30
2018-09-09T23:56:20.279Z,13.30
2018-09-09T23:58:24.160Z,13.30
